createdAt,value
2022-10-22T00:02:27.565Z,101052.44
2022-10-22T00:04:54.469Z,101051.03
2022-10-22T00:07:21.253Z,101053.00
2022-10-22T00:09:47.794Z,101066.25
2022-10-22T00:12:15.710Z,101051.34
2022-10-22T00:14:42.569Z,101059.13
2022-10-22T00:17:11.566Z,101063.50
2022-10-22T00:19:38.823Z,101058.63
2022-10-22T00:22:05.737Z,101065.06
2022-10-22T00:24:33.670Z,101067.56
2022-10-22T00:27:00.026Z,101068.97
2022-10-22T00:29:26.376Z,101068.28
2022-10-22T00:31:52.854Z,101073.69
2022-10-22T00:34:21.291Z,101075.66
2022-10-22T00:36:48.547Z,101076.59
2022-10-22T00:39:16.751Z,101073.97
2022-10-22T00:41:44.892Z,101073.56
2022-10-22T00:44:48.643Z,101079.41
2022-10-22T00:47:16.887Z,101074.38
2022-10-22T00:49:44.876Z,101080.31
2022-10-22T00:52:11.621Z,101078.38
2022-10-22T00:54:38.951Z,101079.75
2022-10-22T00:57:05.550Z,101071.94
2022-10-22T00:59:31.924Z,101077.78
2022-10-22T01:01:58.311Z,101074.16
2022-10-22T01:04:25.123Z,101075.69
2022-10-22T01:06:51.645Z,101078.03
2022-10-22T01:09:17.935Z,101083.63
2022-10-22T01:12:14.931Z,101076.38
2022-10-22T01:14:50.480Z,101080.41
2022-10-22T01:17:22.363Z,101071.88
2022-10-22T01:20:02.498Z,101082.47
2022-10-22T01:22:39.019Z,101077.97
2022-10-22T01:25:11.962Z,101070.84
2022-10-22T01:28:00.108Z,101068.19
2022-10-22T01:30:27.302Z,101069.03
2022-10-22T01:32:59.547Z,101068.75
2022-10-22T01:35:31.482Z,101079.63
2022-10-22T01:38:02.723Z,101072.97
2022-10-22T01:40:29.493Z,101066.69
2022-10-22T01:42:57.684Z,101074.91
2022-10-22T01:45:24.173Z,101072.72
2022-10-22T01:48:01.938Z,101076.88
2022-10-22T01:50:48.179Z,101075.22
2022-10-22T01:53:37.460Z,101070.91
2022-10-22T01:56:30.459Z,101067.53
2022-10-22T01:58:59.678Z,101077.47
2022-10-22T02:01:31.886Z,101079.56
2022-10-22T02:04:08.490Z,101073.16
2022-10-22T02:06:39.079Z,101073.31
2022-10-22T02:09:07.651Z,101067.75
2022-10-22T02:11:34.309Z,101067.34
2022-10-22T02:14:04.313Z,101067.22
2022-10-22T02:16:36.102Z,101066.81
2022-10-22T02:19:10.371Z,101063.59
2022-10-22T02:21:36.726Z,101061.41
2022-10-22T02:24:03.143Z,101058.34
2022-10-22T02:26:37.463Z,101056.69
2022-10-22T02:29:24.116Z,101053.06
2022-10-22T02:31:53.537Z,101053.06
2022-10-22T02:34:26.009Z,101059.44
2022-10-22T02:36:54.384Z,101057.09
2022-10-22T02:39:21.656Z,101059.06
2022-10-22T02:41:48.747Z,101062.25
2022-10-22T02:44:15.087Z,101064.06
2022-10-22T02:46:43.509Z,101063.06
2022-10-22T02:49:09.803Z,101062.53
2022-10-22T02:51:36.188Z,101062.81
2022-10-22T02:54:03.123Z,101071.06
2022-10-22T02:56:29.432Z,101070.63
2022-10-22T02:58:55.876Z,101063.25
2022-10-22T03:01:22.690Z,101068.84
2022-10-22T03:03:49.220Z,101079.28
2022-10-22T03:06:15.721Z,101086.38
2022-10-22T03:08:42.358Z,101075.13
2022-10-22T03:11:08.854Z,101072.19
2022-10-22T03:13:35.189Z,101077.47
2022-10-22T03:16:01.758Z,101078.72
2022-10-22T03:18:28.295Z,101065.78
2022-10-22T03:21:11.015Z,101076.63
2022-10-22T03:23:39.943Z,101081.19
2022-10-22T03:26:07.746Z,101078.53
2022-10-22T03:28:36.242Z,101077.59
2022-10-22T03:31:02.763Z,101077.34
2022-10-22T03:33:29.071Z,101084.53
2022-10-22T03:35:55.419Z,101078.00
2022-10-22T03:38:21.884Z,101075.06
2022-10-22T03:40:48.694Z,101082.72
2022-10-22T03:43:16.095Z,101080.78
2022-10-22T03:45:42.418Z,101080.50
2022-10-22T03:48:08.783Z,101084.81
2022-10-22T03:50:35.194Z,101084.41
2022-10-22T03:53:01.519Z,101094.84
2022-10-22T03:55:27.954Z,101094.84
2022-10-22T03:57:54.263Z,101094.84
2022-10-22T04:00:20.675Z,101095.94
2022-10-22T04:02:47.004Z,101100.41
2022-10-22T04:07:41.081Z,101098.72
2022-10-22T04:10:07.832Z,101104.16
2022-10-22T04:12:34.202Z,101102.34
2022-10-22T04:15:00.547Z,101098.72
2022-10-22T04:17:26.898Z,101100.69
2022-10-22T04:19:53.236Z,101099.03
2022-10-22T04:22:19.530Z,101104.03
2022-10-22T04:24:45.913Z,101100.69
2022-10-22T04:27:12.331Z,101105.41
2022-10-22T04:29:38.619Z,101108.50
2022-10-22T04:32:05.153Z,101109.59
2022-10-22T04:34:31.579Z,101109.91
2022-10-22T04:36:57.960Z,101115.59
2022-10-22T04:39:24.357Z,101106.53
2022-10-22T04:41:50.683Z,101110.59
2022-10-22T04:44:17.554Z,101107.41
2022-10-22T04:46:45.430Z,101110.19
2022-10-22T04:49:11.795Z,101115.47
2022-10-22T04:51:38.195Z,101113.25
2022-10-22T04:54:05.288Z,101114.06
2022-10-22T04:56:32.358Z,101117.13
2022-10-22T04:59:07.256Z,101121.84
2022-10-22T05:01:39.931Z,101131.34
2022-10-22T05:04:12.088Z,101125.94
2022-10-22T05:06:38.763Z,101126.19
2022-10-22T05:09:08.412Z,101126.34
2022-10-22T05:11:37.552Z,101127.72
2022-10-22T05:14:05.964Z,101127.16
2022-10-22T05:16:34.053Z,101126.47
2022-10-22T05:19:01.631Z,101127.72
2022-10-22T05:21:28.691Z,101127.59
2022-10-22T05:23:56.654Z,101128.84
2022-10-22T05:26:24.926Z,101132.31
2022-10-22T05:28:52.098Z,101131.34
2022-10-22T05:31:18.897Z,101135.78
2022-10-22T05:33:46.156Z,101127.72
2022-10-22T05:36:16.240Z,101142.19
2022-10-22T05:38:42.690Z,101132.06
2022-10-22T05:41:12.247Z,101132.41
2022-10-22T05:43:38.972Z,101136.31
2022-10-22T05:46:13.446Z,101138.94
2022-10-22T05:48:40.285Z,101144.13
2022-10-22T05:51:12.003Z,101139.38
2022-10-22T05:53:41.386Z,101143.13
2022-10-22T05:56:16.903Z,101152.88
2022-10-22T05:58:44.699Z,101154.38
2022-10-22T06:01:22.798Z,101161.91
2022-10-22T06:03:49.875Z,101160.53
2022-10-22T06:06:35.995Z,101157.75
2022-10-22T06:09:07.154Z,101165.28
2022-10-22T06:11:35.168Z,101171.94
2022-10-22T06:14:01.830Z,101174.47
2022-10-22T06:16:31.751Z,101178.94
2022-10-22T06:19:02.013Z,101178.38
2022-10-22T06:21:29.463Z,101188.38
2022-10-22T06:23:57.186Z,101183.91
2022-10-22T06:26:23.926Z,101187.53
2022-10-22T06:28:50.398Z,101193.53
2022-10-22T06:31:16.756Z,101192.56
2022-10-22T06:33:43.337Z,101200.94
2022-10-22T06:36:12.107Z,101202.75
2022-10-22T06:38:38.931Z,101215.13
2022-10-22T06:41:10.966Z,101208.47
2022-10-22T06:43:37.363Z,101210.97
2022-10-22T06:46:07.335Z,101212.38
2022-10-22T06:48:33.707Z,101225.19
2022-10-22T06:51:05.771Z,101234.94
2022-10-22T06:53:32.355Z,101227.72
2022-10-22T06:55:58.690Z,101236.34
2022-10-22T06:58:25.219Z,101239.41
2022-10-22T07:01:11.196Z,101240.81
2022-10-22T07:03:38.663Z,101241.34
2022-10-22T07:06:08.481Z,101248.59
2022-10-22T07:08:35.853Z,101242.91
2022-10-22T07:11:17.552Z,101251.13
2022-10-22T07:13:45.242Z,101242.34
2022-10-22T07:16:11.759Z,101248.34
2022-10-22T07:18:39.063Z,101253.63
2022-10-22T07:21:06.091Z,101255.16
2022-10-22T07:23:32.925Z,101264.22
2022-10-22T07:25:59.719Z,101261.94
2022-10-22T07:28:26.062Z,101258.06
2022-10-22T07:30:52.679Z,101263.75
2022-10-22T07:33:18.994Z,101260.81
2022-10-22T07:35:45.567Z,101275.88
2022-10-22T07:38:12.109Z,101270.84
2022-10-22T07:40:38.460Z,101282.81
2022-10-22T07:43:06.649Z,101283.59
2022-10-22T07:45:33.617Z,101284.44
2022-10-22T07:48:00.602Z,101287.81
2022-10-22T07:50:27.081Z,101276.44
2022-10-22T07:52:56.020Z,101286.19
2022-10-22T07:55:23.913Z,101287.81
2022-10-22T07:57:50.316Z,101288.78
2022-10-22T08:00:19.415Z,101296.63
2022-10-22T08:02:48.106Z,101297.84
2022-10-22T08:05:14.491Z,101297.84
2022-10-22T08:07:40.920Z,101305.66
2022-10-22T08:10:08.167Z,101301.16
2022-10-22T08:12:34.580Z,101303.53
2022-10-22T08:15:00.881Z,101304.81
2022-10-22T08:17:27.877Z,101314.84
2022-10-22T08:19:54.198Z,101315.59
2022-10-22T08:22:20.494Z,101329.84
2022-10-22T08:24:46.881Z,101322.03
2022-10-22T08:27:13.451Z,101321.50
2022-10-22T08:29:40.070Z,101326.81
2022-10-22T08:32:06.401Z,101330.19
2022-10-22T08:34:32.784Z,101337.16
2022-10-22T08:36:59.186Z,101339.13
2022-10-22T08:39:25.547Z,101346.94
2022-10-22T08:41:54.751Z,101343.47
2022-10-22T08:44:40.660Z,101341.88
2022-10-22T08:47:28.567Z,101347.03
2022-10-22T08:49:56.970Z,101353.59
2022-10-22T08:52:23.269Z,101346.22
2022-10-22T08:54:55.465Z,101344.63
2022-10-22T08:57:48.706Z,101360.25
2022-10-22T09:00:33.733Z,101364.91
2022-10-22T09:03:15.668Z,101368.78
2022-10-22T09:05:54.185Z,101373.66
2022-10-22T09:08:20.774Z,101371.31
2022-10-22T09:10:57.390Z,101372.28
2022-10-22T09:13:24.219Z,101370.69
2022-10-22T09:16:13.674Z,101378.81
2022-10-22T09:18:56.647Z,101380.25
2022-10-22T09:21:33.328Z,101378.69
2022-10-22T09:24:25.381Z,101388.69
2022-10-22T09:26:52.344Z,101391.38
2022-10-22T09:29:24.434Z,101384.22
2022-10-22T09:31:50.844Z,101381.25
2022-10-22T09:34:21.290Z,101392.34
2022-10-22T09:36:47.703Z,101385.59
2022-10-22T09:39:26.495Z,101390.19
2022-10-22T09:41:52.899Z,101396.28
2022-10-22T09:44:20.136Z,101402.47
2022-10-22T09:46:46.666Z,101404.94
2022-10-22T09:49:16.192Z,101402.94
2022-10-22T09:51:56.150Z,101406.38
2022-10-22T09:54:31.614Z,101397.97
2022-10-22T09:57:04.506Z,101417.66
2022-10-22T09:59:36.662Z,101412.06
2022-10-22T10:02:19.928Z,101424.63
2022-10-22T10:04:50.453Z,101433.25
2022-10-22T10:07:26.453Z,101439.63
2022-10-22T10:09:53.903Z,101441.47
2022-10-22T10:12:24.790Z,101445.28
2022-10-22T10:15:07.948Z,101433.94
2022-10-22T10:17:44.150Z,101436.63
2022-10-22T10:20:26.891Z,101425.50
2022-10-22T10:23:11.621Z,101430.91
2022-10-22T10:26:02.826Z,101435.16
2022-10-22T10:28:35.391Z,101446.19
2022-10-22T10:31:27.786Z,101463.44
2022-10-22T10:34:09.490Z,101463.84
2022-10-22T10:36:49.165Z,101451.53
2022-10-22T10:39:23.938Z,101457.09
2022-10-22T10:42:04.903Z,101468.53
2022-10-22T10:44:55.835Z,101469.13
2022-10-22T10:47:52.608Z,101470.84
2022-10-22T10:50:52.725Z,101470.53
2022-10-22T10:53:28.942Z,101481.78
2022-10-22T10:56:19.692Z,101470.53
2022-10-22T10:59:01.738Z,101482.34
2022-10-22T11:01:40.381Z,101478.94
2022-10-22T11:04:24.672Z,101480.50
2022-10-22T11:06:58.650Z,101484.59
2022-10-22T11:09:34.230Z,101486.59
2022-10-22T11:12:05.504Z,101481.66
2022-10-22T11:14:46.889Z,101479.31
2022-10-22T11:17:18.441Z,101491.03
2022-10-22T11:20:06.074Z,101488.66
2022-10-22T11:22:36.899Z,101487.84
2022-10-22T11:25:15.598Z,101496.97
2022-10-22T11:27:53.801Z,101495.28
2022-10-22T11:30:22.735Z,101501.78
2022-10-22T11:32:56.072Z,101498.09
2022-10-22T11:35:26.143Z,101493.63
2022-10-22T11:37:56.058Z,101487.69
2022-10-22T11:40:28.604Z,101491.00
2022-10-22T11:43:03.816Z,101485.59
2022-10-22T11:45:34.922Z,101486.50
2022-10-22T11:48:10.397Z,101491.69
2022-10-22T11:50:54.166Z,101498.06
2022-10-22T11:53:32.644Z,101509.81
2022-10-22T11:56:09.826Z,101505.38
2022-10-22T11:58:42.663Z,101497.34
2022-10-22T12:01:08.917Z,101491.88
2022-10-22T12:03:35.278Z,101492.31
2022-10-22T12:06:15.623Z,101494.47
2022-10-22T12:08:45.335Z,101493.53
2022-10-22T12:11:11.744Z,101502.63
2022-10-22T12:14:03.045Z,101496.97
2022-10-22T12:16:55.068Z,101499.28
2022-10-22T12:19:22.217Z,101501.84
2022-10-22T12:21:53.182Z,101508.97
2022-10-22T12:24:23.393Z,101511.56
2022-10-22T12:26:52.270Z,101519.28
2022-10-22T12:29:23.594Z,101515.97
2022-10-22T12:31:50.136Z,101515.56
2022-10-22T12:34:19.360Z,101517.66
2022-10-22T12:36:47.933Z,101515.31
2022-10-22T12:39:22.075Z,101513.09
2022-10-22T12:41:48.442Z,101516.69
2022-10-22T12:44:17.746Z,101528.03
2022-10-22T12:46:46.611Z,101513.88
2022-10-22T12:49:22.332Z,101514.25
2022-10-22T12:51:49.289Z,101508.94
2022-10-22T12:54:25.039Z,101514.97
2022-10-22T12:56:52.591Z,101521.16
2022-10-22T12:59:28.139Z,101515.03
2022-10-22T13:01:55.618Z,101510.81
2022-10-22T13:04:34.554Z,101511.16
2022-10-22T13:07:19.929Z,101521.22
2022-10-22T13:09:58.795Z,101510.50
2022-10-22T13:12:36.067Z,101516.50
2022-10-22T13:15:38.902Z,101518.53
2022-10-22T13:18:23.792Z,101513.81
2022-10-22T13:21:03.333Z,101516.44
2022-10-22T13:23:32.768Z,101515.75
2022-10-22T13:26:17.828Z,101505.16
2022-10-22T13:28:51.226Z,101507.50
2022-10-22T13:31:20.907Z,101516.56
2022-10-22T13:33:53.611Z,101512.63
2022-10-22T13:36:20.128Z,101512.00
2022-10-22T13:38:46.616Z,101517.88
2022-10-22T13:41:21.548Z,101515.38
2022-10-22T13:43:48.281Z,101525.22
2022-10-22T13:46:14.769Z,101533.75
2022-10-22T13:48:41.327Z,101533.09
2022-10-22T13:51:15.799Z,101533.72
2022-10-22T13:53:43.701Z,101533.56
2022-10-22T13:56:14.047Z,101540.06
2022-10-22T13:58:40.402Z,101540.41
2022-10-22T14:01:16.598Z,101536.38
2022-10-22T14:03:43.005Z,101538.22
2022-10-22T14:06:14.564Z,101537.88
2022-10-22T14:08:42.313Z,101527.72
2022-10-22T14:11:12.174Z,101530.06
2022-10-22T14:13:38.975Z,101534.75
2022-10-22T14:16:07.972Z,101536.88
2022-10-22T14:18:35.703Z,101531.22
2022-10-22T14:21:10.296Z,101532.38
2022-10-22T14:23:36.948Z,101537.91
2022-10-22T14:26:04.113Z,101536.38
2022-10-22T14:28:34.232Z,101529.06
2022-10-22T14:31:10.833Z,101541.19
2022-10-22T14:33:37.165Z,101531.00
2022-10-22T14:36:03.565Z,101541.00
2022-10-22T14:38:29.931Z,101535.97
2022-10-22T14:40:57.696Z,101544.94
2022-10-22T14:43:26.922Z,101555.25
2022-10-22T14:45:53.286Z,101551.75
2022-10-22T14:50:47.172Z,101568.56
2022-10-22T14:53:14.588Z,101565.88
2022-10-22T14:55:42.854Z,101559.50
2022-10-22T14:58:09.153Z,101561.78
2022-10-22T15:00:36.789Z,101566.59
2022-10-22T15:03:04.433Z,101567.75
2022-10-22T15:05:30.973Z,101575.47
2022-10-22T15:07:59.037Z,101572.78
2022-10-22T15:10:26.263Z,101566.25
2022-10-22T15:12:52.643Z,101569.84
2022-10-22T15:15:21.968Z,101580.50
2022-10-22T15:17:49.504Z,101565.34
2022-10-22T15:20:15.820Z,101580.31
2022-10-22T15:22:42.625Z,101577.59
2022-10-22T15:25:09.791Z,101582.94
2022-10-22T15:27:36.196Z,101586.88
2022-10-22T15:32:34.085Z,101587.84
2022-10-22T15:35:05.855Z,101583.19
2022-10-22T15:37:32.248Z,101589.00
2022-10-22T15:39:58.697Z,101589.22
2022-10-22T15:42:25.060Z,101592.97
2022-10-22T15:44:57.901Z,101601.88
2022-10-22T15:47:28.317Z,101602.81
2022-10-22T15:49:55.091Z,101604.00
2022-10-22T15:52:22.018Z,101599.50
2022-10-22T15:54:48.391Z,101601.53
2022-10-22T15:57:14.722Z,101599.63
2022-10-22T15:59:41.063Z,101600.97
2022-10-22T16:02:07.563Z,101596.28
2022-10-22T16:04:33.878Z,101599.94
2022-10-22T16:07:00.263Z,101596.88
2022-10-22T16:09:27.555Z,101597.22
2022-10-22T16:11:55.313Z,101602.19
2022-10-22T16:14:23.234Z,101602.59
2022-10-22T16:16:52.427Z,101604.03
2022-10-22T16:19:21.038Z,101605.72
2022-10-22T16:21:50.910Z,101607.44
2022-10-22T16:24:18.237Z,101603.00
2022-10-22T16:26:44.577Z,101606.91
2022-10-22T16:29:12.491Z,101607.69
2022-10-22T16:31:40.104Z,101601.97
2022-10-22T16:34:07.079Z,101610.75
2022-10-22T16:36:35.783Z,101614.34
2022-10-22T16:39:02.702Z,101613.34
2022-10-22T16:41:34.917Z,101617.50
2022-10-22T16:44:03.994Z,101612.03
2022-10-22T16:46:31.254Z,101617.31
2022-10-22T16:48:57.723Z,101620.63
2022-10-22T16:51:26.219Z,101625.06
2022-10-22T16:53:53.057Z,101617.50
2022-10-22T16:56:20.275Z,101625.00
2022-10-22T16:58:49.327Z,101622.03
2022-10-22T17:01:18.067Z,101630.50
2022-10-22T17:03:45.094Z,101627.69
2022-10-22T17:06:11.867Z,101620.53
2022-10-22T17:08:39.238Z,101620.06
2022-10-22T17:11:09.288Z,101621.56
2022-10-22T17:13:36.109Z,101621.38
2022-10-22T17:16:08.682Z,101628.84
2022-10-22T17:18:37.002Z,101634.66
2022-10-22T17:21:07.204Z,101637.09
2022-10-22T17:23:33.545Z,101634.97
2022-10-22T17:26:08.783Z,101642.78
2022-10-22T17:28:36.374Z,101645.81
2022-10-22T17:31:18.346Z,101652.44
2022-10-22T17:33:45.642Z,101653.84
2022-10-22T17:36:13.529Z,101662.69
2022-10-22T17:38:41.666Z,101658.84
2022-10-22T17:41:13.793Z,101664.72
2022-10-22T17:43:41.122Z,101656.34
2022-10-22T17:46:12.584Z,101657.31
2022-10-22T17:48:38.884Z,101664.16
2022-10-22T17:51:09.974Z,101662.97
2022-10-22T17:53:39.573Z,101658.91
2022-10-22T17:56:10.110Z,101658.03
2022-10-22T17:58:37.096Z,101662.50
2022-10-22T18:01:04.284Z,101657.94
2022-10-22T18:03:30.736Z,101651.13
2022-10-22T18:06:05.746Z,101660.09
2022-10-22T18:08:32.272Z,101665.88
2022-10-22T18:10:58.805Z,101665.50
2022-10-22T18:13:25.114Z,101662.78
2022-10-22T18:15:55.882Z,101673.56
2022-10-22T18:18:23.857Z,101677.38
2022-10-22T18:20:51.556Z,101675.13
2022-10-22T18:23:18.178Z,101669.22
2022-10-22T18:25:44.523Z,101666.72
2022-10-22T18:28:13.654Z,101674.75
2022-10-22T18:30:40.923Z,101671.75
2022-10-22T18:33:08.438Z,101669.22
2022-10-22T18:35:35.038Z,101673.09
2022-10-22T18:38:01.406Z,101671.88
2022-10-22T18:40:30.053Z,101672.09
2022-10-22T18:42:56.935Z,101677.00
2022-10-22T18:45:23.256Z,101672.56
2022-10-22T18:47:49.661Z,101675.91
2022-10-22T18:50:16.074Z,101684.81
2022-10-22T18:52:42.817Z,101686.72
2022-10-22T18:55:09.696Z,101686.72
2022-10-22T18:57:36.007Z,101688.66
2022-10-22T19:00:02.346Z,101690.34
2022-10-22T19:02:29.754Z,101687.69
2022-10-22T19:04:56.224Z,101681.44
2022-10-22T19:07:22.734Z,101684.34
2022-10-22T19:09:49.075Z,101675.78
2022-10-22T20:43:52.702Z,101673.47
2022-10-22T20:46:22.939Z,101668.91
2022-10-22T20:48:51.862Z,101674.19
2022-10-22T20:51:18.181Z,101667.44
2022-10-22T20:53:44.509Z,101680.88
2022-10-22T20:56:11.457Z,101676.56
2022-10-22T20:58:38.090Z,101679.19
2022-10-22T21:01:10.181Z,101673.91
2022-10-22T21:03:37.472Z,101678.22
2022-10-22T21:06:05.200Z,101675.59
2022-10-22T21:08:31.763Z,101676.44
2022-10-22T21:10:58.086Z,101677.28
2022-10-22T21:13:24.475Z,101681.38
2022-10-22T21:15:50.791Z,101671.56
2022-10-22T21:18:17.143Z,101675.75
2022-10-22T21:20:43.437Z,101677.66
2022-10-22T21:23:09.751Z,101680.41
2022-10-22T21:25:39.532Z,101682.09
2022-10-22T21:28:08.358Z,101675.16
2022-10-22T21:30:34.676Z,101684.00
2022-10-22T21:33:01.015Z,101687.56
2022-10-22T21:35:27.319Z,101693.09
2022-10-22T21:37:53.652Z,101686.13
2022-10-22T21:40:20.761Z,101674.75
2022-10-22T21:42:47.163Z,101680.88
2022-10-22T21:45:14.248Z,101679.78
2022-10-22T21:47:42.157Z,101678.94
2022-10-22T21:50:09.063Z,101678.09
2022-10-22T21:52:35.423Z,101684.34
2022-10-22T21:55:01.834Z,101685.91
2022-10-22T21:57:28.181Z,101691.09
2022-10-22T21:59:54.556Z,101685.69
2022-10-22T22:04:54.684Z,101691.81
2022-10-22T22:07:21.926Z,101685.69
2022-10-22T22:09:51.636Z,101692.41
2022-10-22T22:12:18.482Z,101686.09
2022-10-22T22:14:44.827Z,101685.25
2022-10-22T22:17:11.221Z,101686.28
2022-10-22T22:19:40.853Z,101676.59
2022-10-22T22:22:07.184Z,101674.69
2022-10-22T22:24:33.938Z,101669.91
2022-10-22T22:27:00.395Z,101671.50
2022-10-22T22:29:26.737Z,101674.00
2022-10-22T22:31:53.026Z,101663.47
2022-10-22T22:34:19.448Z,101665.38
2022-10-22T22:36:46.871Z,101657.34
2022-10-22T22:39:17.288Z,101664.94
2022-10-22T22:41:44.058Z,101655.81
2022-10-22T22:44:10.418Z,101650.91
2022-10-22T22:46:36.851Z,101654.06
2022-10-22T22:49:03.875Z,101651.31
2022-10-22T22:51:30.678Z,101651.94
2022-10-22T22:53:58.088Z,101648.31
2022-10-22T22:56:27.773Z,101642.94
2022-10-22T22:58:55.297Z,101643.72
2022-10-22T23:01:26.252Z,101642.75
2022-10-22T23:04:22.803Z,101644.63
2022-10-22T23:06:50.707Z,101642.22
2022-10-22T23:11:50.681Z,101643.72
2022-10-22T23:14:19.210Z,101638.19
2022-10-22T23:16:48.198Z,101631.81
2022-10-22T23:19:16.463Z,101627.63
2022-10-22T23:21:48.544Z,101629.72
2022-10-22T23:24:17.650Z,101630.81
2022-10-22T23:26:46.312Z,101621.31
2022-10-22T23:29:21.863Z,101624.91
2022-10-22T23:31:50.239Z,101625.75
2022-10-22T23:36:45.954Z,101629.81
2022-10-22T23:39:17.354Z,101636.38
2022-10-22T23:41:44.448Z,101644.66
2022-10-22T23:44:11.825Z,101627.38
2022-10-22T23:46:38.743Z,101635.63
2022-10-22T23:49:06.650Z,101629.63
2022-10-22T23:51:33.107Z,101617.53
2022-10-22T23:54:04.563Z,101608.88
2022-10-22T23:56:31.383Z,101602.75
2022-10-22T23:58:57.767Z,101612.69
